createdAt,value
2018-03-27T00:02:07.206Z,25.80
2018-03-27T00:04:35.241Z,25.27
2018-03-27T00:07:02.285Z,26.13
2018-03-27T00:09:30.504Z,24.73
2018-03-27T00:11:57.616Z,26.43
2018-03-27T00:14:24.658Z,27.10
2018-03-27T00:16:51.708Z,25.37
2018-03-27T00:19:18.761Z,26.33
2018-03-27T00:21:45.804Z,25.30
2018-03-27T00:24:12.854Z,24.07
2018-03-27T00:26:45.841Z,24.07
2018-03-27T00:29:18.699Z,25.33
2018-03-27T00:31:51.611Z,21.93
2018-03-27T00:34:24.710Z,24.23
2018-03-27T00:36:58.816Z,24.17
2018-03-27T00:39:31.700Z,24.30
2018-03-27T00:42:13.598Z,24.43
2018-03-27T00:44:40.651Z,23.87
2018-03-27T00:47:08.416Z,25.57
2018-03-27T00:49:35.973Z,25.80
2018-03-27T00:52:03.838Z,27.47
2018-03-27T00:54:31.097Z,28.20
2018-03-27T00:56:59.172Z,29.40
2018-03-27T00:59:26.216Z,30.53
2018-03-27T01:01:53.269Z,29.73
2018-03-27T01:04:20.316Z,31.30
2018-03-27T01:06:52.000Z,30.27
2018-03-27T01:09:19.016Z,30.60
2018-03-27T01:11:46.070Z,31.00
2018-03-27T01:14:13.114Z,29.70
2018-03-27T01:16:40.162Z,29.00
2018-03-27T01:19:07.217Z,27.40
2018-03-27T01:21:34.770Z,29.63
2018-03-27T01:24:01.827Z,29.87
2018-03-27T01:26:28.869Z,31.03
2018-03-27T01:29:14.824Z,27.67
2018-03-27T01:32:00.017Z,30.03
2018-03-27T01:34:27.492Z,27.30
2018-03-27T01:36:57.308Z,26.23
2018-03-27T01:39:24.360Z,26.53
2018-03-27T01:41:51.402Z,27.00
2018-03-27T01:44:18.554Z,27.17
2018-03-27T01:46:45.602Z,25.83
2018-03-27T01:49:12.656Z,26.17
2018-03-27T01:51:39.698Z,27.07
2018-03-27T01:54:07.775Z,27.03
2018-03-27T01:56:34.823Z,27.13
2018-03-27T01:59:01.874Z,26.67
2018-03-27T02:01:28.920Z,26.43
2018-03-27T02:03:55.968Z,26.90
2018-03-27T02:06:23.021Z,25.47
2018-03-27T02:08:50.063Z,28.10
2018-03-27T02:11:22.855Z,26.60
2018-03-27T02:13:56.151Z,28.13
2018-03-27T02:16:29.025Z,28.10
2018-03-27T02:19:01.912Z,29.13
2018-03-27T02:21:28.550Z,29.37
2018-03-27T02:24:07.376Z,26.43
2018-03-27T02:26:34.425Z,26.20
2018-03-27T02:29:01.478Z,26.40
2018-03-27T02:31:28.531Z,26.50
2018-03-27T02:33:55.571Z,26.80
2018-03-27T02:36:23.027Z,27.13
2018-03-27T02:38:50.317Z,28.00
2018-03-27T02:41:18.560Z,29.57
2018-03-27T02:43:45.613Z,30.93
2018-03-27T02:46:12.655Z,27.57
2018-03-27T02:48:40.627Z,28.23
2018-03-27T02:51:08.084Z,29.73
2018-03-27T02:53:35.136Z,30.33
2018-03-27T02:56:02.388Z,31.40
2018-03-27T02:58:29.331Z,31.60
2018-03-27T03:00:57.301Z,31.37
2018-03-27T03:03:24.287Z,30.40
2018-03-27T03:05:51.309Z,30.47
2018-03-27T03:08:18.356Z,30.20
2018-03-27T03:10:45.393Z,31.67
2018-03-27T03:13:12.750Z,32.47
2018-03-27T03:15:39.802Z,30.43
2018-03-27T03:18:08.073Z,31.33
2018-03-27T03:20:35.134Z,31.37
2018-03-27T03:23:02.177Z,30.70
2018-03-27T03:25:29.219Z,32.07
2018-03-27T03:27:56.268Z,31.77
2018-03-27T03:30:23.325Z,29.37
2018-03-27T03:32:50.318Z,30.33
2018-03-27T03:35:17.975Z,31.17
2018-03-27T03:37:44.974Z,32.60
2018-03-27T03:40:13.155Z,34.00
2018-03-27T03:42:40.199Z,32.53
2018-03-27T03:45:07.246Z,32.03
2018-03-27T03:47:34.261Z,31.70
2018-03-27T03:50:01.241Z,32.10
2018-03-27T03:52:28.910Z,31.33
2018-03-27T03:54:55.953Z,32.20
2018-03-27T03:57:23.000Z,32.10
2018-03-27T03:59:50.055Z,32.57
2018-03-27T04:02:17.099Z,32.87
2018-03-27T04:04:44.971Z,32.13
2018-03-27T04:07:12.014Z,33.37
2018-03-27T04:09:39.062Z,34.10
2018-03-27T04:12:06.115Z,34.67
2018-03-27T04:14:33.108Z,34.07
2018-03-27T04:17:01.129Z,35.47
2018-03-27T04:19:28.183Z,36.27
2018-03-27T04:21:55.226Z,35.57
2018-03-27T04:24:22.276Z,36.20
2018-03-27T04:26:49.329Z,36.03
2018-03-27T04:29:16.577Z,36.90
2018-03-27T04:31:44.035Z,34.27
2018-03-27T04:34:10.980Z,35.10
2018-03-27T04:36:38.029Z,36.03
2018-03-27T04:39:05.084Z,37.40
2018-03-27T04:41:33.969Z,37.20
2018-03-27T04:44:01.019Z,35.67
2018-03-27T04:46:28.074Z,33.23
2018-03-27T04:48:56.149Z,33.13
2018-03-27T04:51:23.195Z,36.37
2018-03-27T04:53:51.370Z,37.07
2018-03-27T04:56:19.846Z,35.00
2018-03-27T04:58:46.901Z,33.73
2018-03-27T05:01:14.050Z,30.03
2018-03-27T05:03:42.322Z,27.00
2018-03-27T05:06:09.371Z,31.93
2018-03-27T05:08:36.428Z,30.93
2018-03-27T05:11:03.672Z,32.40
2018-03-27T05:13:32.768Z,31.17
2018-03-27T05:15:59.817Z,29.40
2018-03-27T05:18:26.872Z,34.10
2018-03-27T05:20:54.343Z,31.73
2018-03-27T05:23:22.806Z,30.50
2018-03-27T05:25:49.859Z,31.47
2018-03-27T05:28:18.265Z,33.67
2018-03-27T05:30:45.282Z,33.77
2018-03-27T05:33:12.638Z,34.13
2018-03-27T05:35:39.692Z,37.63
2018-03-27T05:38:06.734Z,39.30
2018-03-27T05:40:34.193Z,66.47
2018-03-27T05:43:01.243Z,36.30
2018-03-27T05:45:28.296Z,35.07
2018-03-27T05:47:56.262Z,35.37
2018-03-27T05:50:23.410Z,34.60
2018-03-27T05:52:50.977Z,39.30
2018-03-27T05:55:18.020Z,37.97
2018-03-27T05:57:45.070Z,36.40
2018-03-27T06:00:12.122Z,36.57
2018-03-27T06:02:40.501Z,36.30
2018-03-27T06:05:07.567Z,35.77
2018-03-27T06:07:34.594Z,36.33
2018-03-27T06:10:01.648Z,35.23
2018-03-27T06:12:28.691Z,34.70
2018-03-27T06:14:55.741Z,34.77
2018-03-27T06:17:23.453Z,33.70
2018-03-27T06:19:52.183Z,34.83
2018-03-27T06:22:19.246Z,35.83
2018-03-27T06:24:46.288Z,33.20
2018-03-27T06:27:13.337Z,36.47
2018-03-27T06:29:40.328Z,36.07
2018-03-27T06:32:07.333Z,38.17
2018-03-27T06:34:34.748Z,37.30
2018-03-27T06:37:01.735Z,37.67
2018-03-27T06:39:28.785Z,38.80
2018-03-27T06:41:55.775Z,38.27
2018-03-27T06:44:22.779Z,38.50
2018-03-27T06:46:50.033Z,39.47
2018-03-27T06:49:19.158Z,37.13
2018-03-27T06:51:51.476Z,35.20
2018-03-27T06:54:20.598Z,38.07
2018-03-27T06:56:47.654Z,36.07
2018-03-27T06:59:15.567Z,38.83
2018-03-27T07:01:42.569Z,36.73
2018-03-27T07:04:09.612Z,38.23
2018-03-27T07:06:36.660Z,34.60
2018-03-27T07:09:03.722Z,34.00
2018-03-27T07:11:30.758Z,35.13
2018-03-27T07:13:57.919Z,30.70
2018-03-27T07:16:25.207Z,32.80
2018-03-27T07:18:52.230Z,32.37
2018-03-27T07:21:19.311Z,30.33
2018-03-27T07:23:46.311Z,30.50
2018-03-27T07:26:13.355Z,31.50
2018-03-27T07:28:40.403Z,32.90
2018-03-27T07:31:07.458Z,31.83
2018-03-27T07:33:34.608Z,29.73
2018-03-27T07:36:01.652Z,29.97
2018-03-27T07:38:28.700Z,24.37
2018-03-27T07:40:55.755Z,30.67
2018-03-27T07:43:22.798Z,30.37
2018-03-27T07:45:49.849Z,28.60
2018-03-27T07:48:16.901Z,30.80
2018-03-27T07:50:43.947Z,28.87
2018-03-27T07:53:10.996Z,29.83
2018-03-27T07:55:38.252Z,28.10
2018-03-27T07:58:06.431Z,30.33
2018-03-27T08:00:33.467Z,30.63
2018-03-27T08:03:01.236Z,28.13
2018-03-27T08:05:29.155Z,26.73
2018-03-27T08:07:56.151Z,27.10
2018-03-27T08:10:23.198Z,28.20
2018-03-27T08:12:50.764Z,28.40
2018-03-27T08:15:18.114Z,28.23
2018-03-27T08:17:45.168Z,28.53
2018-03-27T08:20:12.256Z,29.57
2018-03-27T08:22:39.260Z,28.77
2018-03-27T08:25:06.206Z,29.90
2018-03-27T08:27:33.292Z,25.00
2018-03-27T08:30:00.715Z,27.90
2018-03-27T08:32:27.698Z,26.80
2018-03-27T08:34:54.707Z,26.37
2018-03-27T08:37:22.375Z,28.83
2018-03-27T08:39:49.834Z,26.87
2018-03-27T08:42:16.736Z,27.77
2018-03-27T08:44:43.863Z,28.37
2018-03-27T08:47:10.874Z,26.77
2018-03-27T08:49:37.920Z,27.70
2018-03-27T08:52:05.101Z,26.37
2018-03-27T08:54:32.064Z,28.43
2018-03-27T08:56:59.941Z,29.47
2018-03-27T08:59:26.933Z,28.87
2018-03-27T09:01:53.885Z,28.53
2018-03-27T09:04:20.927Z,29.97
2018-03-27T09:06:49.419Z,29.57
2018-03-27T09:09:16.405Z,31.40
2018-03-27T09:11:43.412Z,32.00
2018-03-27T09:14:10.967Z,28.80
2018-03-27T09:16:38.019Z,31.50
2018-03-27T09:19:05.062Z,30.37
2018-03-27T09:21:32.115Z,30.77
2018-03-27T09:23:59.164Z,30.57
2018-03-27T09:26:26.208Z,29.70
2018-03-27T09:28:53.256Z,29.90
2018-03-27T09:31:20.243Z,28.23
2018-03-27T09:33:47.251Z,28.77
2018-03-27T09:36:14.305Z,29.67
2018-03-27T09:38:41.349Z,30.37
2018-03-27T09:41:08.398Z,30.97
2018-03-27T09:43:35.652Z,29.97
2018-03-27T09:46:02.699Z,30.00
2018-03-27T09:48:29.755Z,29.97
2018-03-27T09:50:56.843Z,31.57
2018-03-27T09:53:24.362Z,30.23
2018-03-27T09:55:51.303Z,30.67
2018-03-27T09:58:18.356Z,28.13
2018-03-27T10:00:51.239Z,28.43
2018-03-27T10:03:18.899Z,29.17
2018-03-27T10:05:47.014Z,28.57
2018-03-27T10:08:14.025Z,28.67
2018-03-27T10:10:41.068Z,29.73
2018-03-27T10:13:09.249Z,29.43
2018-03-27T10:15:36.189Z,29.37
2018-03-27T10:18:03.245Z,29.40
2018-03-27T10:20:31.209Z,28.23
2018-03-27T10:22:58.256Z,28.73
2018-03-27T10:25:25.310Z,31.20
2018-03-27T10:27:53.481Z,28.83
2018-03-27T10:30:21.655Z,31.03
2018-03-27T10:32:48.705Z,29.07
2018-03-27T10:35:15.758Z,30.27
2018-03-27T10:37:43.217Z,31.57
2018-03-27T10:40:10.263Z,28.80
2018-03-27T10:42:37.313Z,27.53
2018-03-27T10:45:04.364Z,27.00
2018-03-27T10:47:31.715Z,26.30
2018-03-27T10:49:58.765Z,26.73
2018-03-27T10:52:25.817Z,29.87
2018-03-27T10:54:52.858Z,26.97
2018-03-27T10:57:19.906Z,26.93
2018-03-27T10:59:46.964Z,23.93
2018-03-27T11:02:15.232Z,8.30
2018-03-27T11:04:42.384Z,21.60
2018-03-27T11:07:09.432Z,18.57
2018-03-27T11:09:36.486Z,26.57
2018-03-27T11:12:03.531Z,25.13
2018-03-27T11:14:32.844Z,24.10
2018-03-27T11:17:01.122Z,17.33
2018-03-27T11:19:29.911Z,16.63
2018-03-27T11:21:59.026Z,24.93
2018-03-27T11:24:28.120Z,22.87
2018-03-27T11:26:56.925Z,22.93
2018-03-27T11:29:26.336Z,19.27
2018-03-27T11:31:55.985Z,23.73
2018-03-27T11:34:24.649Z,20.30
2018-03-27T11:36:55.603Z,24.53
2018-03-27T11:39:24.659Z,22.80
2018-03-27T11:41:56.870Z,9.87
2018-03-27T11:44:25.467Z,7.93
2018-03-27T11:46:54.285Z,19.43
2018-03-27T11:49:22.782Z,17.50
2018-03-27T11:51:51.197Z,19.90
2018-03-27T11:54:20.392Z,22.00
2018-03-27T11:56:50.695Z,21.67
2018-03-27T11:59:19.634Z,20.47
2018-03-27T12:01:47.887Z,21.70
2018-03-27T12:04:16.621Z,22.47
2018-03-27T12:06:45.156Z,18.47
2018-03-27T12:09:12.139Z,19.50
2018-03-27T12:11:39.596Z,19.93
2018-03-27T12:14:08.186Z,19.40
2018-03-27T12:16:35.231Z,7.57
2018-03-27T12:19:02.892Z,10.37
2018-03-27T12:21:29.946Z,12.57
2018-03-27T12:23:56.988Z,9.00
2018-03-27T12:26:23.987Z,16.40
2018-03-27T12:28:50.984Z,20.97
2018-03-27T12:31:18.955Z,22.00
2018-03-27T12:33:46.006Z,10.37
2018-03-27T12:36:15.457Z,19.30
2018-03-27T12:38:44.082Z,20.60
2018-03-27T12:41:12.799Z,17.20
2018-03-27T12:43:41.874Z,20.53
2018-03-27T12:46:11.388Z,20.43
2018-03-27T12:48:39.666Z,17.37
2018-03-27T12:51:06.711Z,17.97
2018-03-27T12:53:33.757Z,14.83
2018-03-27T12:56:00.810Z,20.13
2018-03-27T12:58:27.855Z,20.20
2018-03-27T13:01:00.523Z,18.50
2018-03-27T13:03:27.585Z,12.33
2018-03-27T13:05:55.758Z,17.80
2018-03-27T13:08:22.810Z,18.10
2018-03-27T13:10:49.907Z,16.90
2018-03-27T13:13:16.903Z,19.50
2018-03-27T13:15:43.954Z,20.47
2018-03-27T13:18:10.847Z,20.33
2018-03-27T13:20:37.851Z,18.83
2018-03-27T13:23:04.894Z,19.67
2018-03-27T13:25:31.943Z,21.57
2018-03-27T13:27:58.997Z,13.93
2018-03-27T13:30:26.962Z,11.27
2018-03-27T13:32:54.013Z,19.60
2018-03-27T13:35:21.071Z,21.43
2018-03-27T13:37:48.112Z,19.90
2018-03-27T13:40:15.156Z,19.77
2018-03-27T13:42:42.214Z,16.17
2018-03-27T13:45:09.911Z,18.60
2018-03-27T13:47:37.177Z,12.77
2018-03-27T13:50:04.169Z,20.60
2018-03-27T13:52:31.219Z,19.27
2018-03-27T13:54:58.676Z,19.33
2018-03-27T13:57:25.730Z,21.50
2018-03-27T13:59:52.614Z,18.90
2018-03-27T14:02:21.126Z,12.67
2018-03-27T14:04:49.515Z,19.33
2018-03-27T14:07:18.060Z,19.73
2018-03-27T14:09:46.702Z,19.80
2018-03-27T14:12:15.739Z,19.30
2018-03-27T14:14:44.627Z,20.10
2018-03-27T14:17:13.681Z,20.27
2018-03-27T14:19:42.503Z,14.47
2018-03-27T14:22:12.535Z,21.20
2018-03-27T14:24:41.856Z,21.07
2018-03-27T14:27:10.888Z,20.57
2018-03-27T14:29:39.986Z,20.67
2018-03-27T14:32:07.042Z,17.87
2018-03-27T14:34:34.084Z,14.73
2018-03-27T14:37:01.134Z,19.17
2018-03-27T14:39:28.185Z,21.03
2018-03-27T14:41:56.303Z,20.47
2018-03-27T14:44:23.301Z,21.83
2018-03-27T14:46:50.373Z,18.83
2018-03-27T14:49:17.502Z,17.77
2018-03-27T14:51:45.881Z,17.87
2018-03-27T14:54:12.936Z,13.10
2018-03-27T14:56:39.979Z,23.17
2018-03-27T14:59:06.974Z,14.43
2018-03-27T15:01:33.973Z,10.57
2018-03-27T15:04:02.251Z,11.43
2018-03-27T15:06:29.306Z,10.27
2018-03-27T15:08:56.348Z,7.63
2018-03-27T15:11:24.932Z,8.50
2018-03-27T15:13:51.993Z,6.27
2018-03-27T15:16:20.437Z,7.33
2018-03-27T15:18:52.260Z,5.37
2018-03-27T15:21:21.751Z,6.07
2018-03-27T15:23:50.712Z,6.83
2018-03-27T15:26:20.491Z,7.87
2018-03-27T15:28:47.489Z,7.43
2018-03-27T15:31:14.946Z,9.13
2018-03-27T15:33:45.235Z,11.10
2018-03-27T15:36:15.110Z,10.20
2018-03-27T15:38:44.074Z,11.47
2018-03-27T15:41:13.925Z,11.07
2018-03-27T15:43:44.993Z,9.80
2018-03-27T15:46:14.277Z,13.00
2018-03-27T15:48:44.211Z,14.13
2018-03-27T15:51:20.319Z,16.70
2018-03-27T15:53:49.622Z,14.47
2018-03-27T15:56:19.744Z,15.77
2018-03-27T15:58:50.960Z,15.27
2018-03-27T16:01:24.140Z,14.57
2018-03-27T16:03:53.287Z,13.77
2018-03-27T16:06:22.325Z,17.13
2018-03-27T16:08:49.324Z,16.20
2018-03-27T16:11:16.363Z,15.40
2018-03-27T16:13:43.408Z,12.73
2018-03-27T16:16:10.403Z,11.50
2018-03-27T16:18:37.402Z,7.57
2018-03-27T16:21:04.452Z,6.80
2018-03-27T16:23:31.962Z,10.60
2018-03-27T16:25:58.965Z,15.47
2018-03-27T16:28:27.240Z,16.70
2018-03-27T16:30:54.390Z,18.23
2018-03-27T16:33:21.437Z,20.13
2018-03-27T16:35:48.690Z,18.33
2018-03-27T16:38:24.072Z,16.80
2018-03-27T16:40:51.029Z,15.53
2018-03-27T16:43:19.956Z,13.53
2018-03-27T16:45:47.539Z,15.47
2018-03-27T16:48:14.579Z,16.60
2018-03-27T16:50:41.537Z,16.63
2018-03-27T16:53:09.350Z,17.57
2018-03-27T16:55:36.457Z,17.07
2018-03-27T16:58:03.473Z,16.77
2018-03-27T17:00:31.564Z,18.37
2018-03-27T17:02:59.131Z,17.87
2018-03-27T17:05:26.173Z,19.00
2018-03-27T17:07:53.222Z,20.80
2018-03-27T17:10:22.561Z,18.40
2018-03-27T17:12:50.698Z,16.47
2018-03-27T17:15:17.747Z,16.13
2018-03-27T17:17:45.107Z,13.07
2018-03-27T17:20:13.380Z,12.70
2018-03-27T17:22:40.428Z,13.37
2018-03-27T17:25:08.808Z,12.90
2018-03-27T17:27:35.862Z,16.40
2018-03-27T17:30:02.904Z,18.03
2018-03-27T17:32:29.953Z,16.80
2018-03-27T17:34:57.105Z,17.17
2018-03-27T17:37:24.360Z,16.57
2018-03-27T17:39:51.510Z,16.50
2018-03-27T17:42:18.556Z,14.83
2018-03-27T17:44:45.856Z,14.93
2018-03-27T17:47:13.082Z,15.07
2018-03-27T17:49:40.227Z,16.50
2018-03-27T17:52:07.370Z,18.67
2018-03-27T17:54:34.363Z,22.83
2018-03-27T17:57:04.274Z,23.33
2018-03-27T17:59:33.496Z,21.63
2018-03-27T18:05:02.383Z,17.93
2018-03-27T18:07:30.734Z,16.23
2018-03-27T18:09:57.871Z,16.33
2018-03-27T18:12:26.051Z,15.33
2018-03-27T18:14:53.099Z,16.20
2018-03-27T18:17:21.225Z,14.53
2018-03-27T18:19:48.216Z,15.73
2018-03-27T18:22:15.367Z,15.13
2018-03-27T18:24:42.419Z,16.33
2018-03-27T18:27:09.464Z,16.07
2018-03-27T18:29:37.743Z,16.87
2018-03-27T18:32:05.103Z,15.90
2018-03-27T18:34:34.517Z,15.50
2018-03-27T18:37:02.933Z,14.60
2018-03-27T18:39:30.242Z,14.80
2018-03-27T18:41:57.282Z,16.43
2018-03-27T18:44:24.333Z,14.43
2018-03-27T18:46:52.451Z,15.37
2018-03-27T18:49:19.458Z,14.43
2018-03-27T18:51:46.918Z,15.57
2018-03-27T18:54:14.166Z,14.97
2018-03-27T18:56:41.219Z,14.33
2018-03-27T18:59:09.492Z,14.23
2018-03-27T19:01:36.540Z,15.27
2018-03-27T19:04:03.593Z,14.73
2018-03-27T19:06:30.745Z,15.07
2018-03-27T19:08:57.837Z,16.37
2018-03-27T19:11:25.354Z,15.63
2018-03-27T19:13:53.831Z,17.57
2018-03-27T19:16:21.297Z,16.77
2018-03-27T19:18:48.349Z,16.10
2018-03-27T19:21:15.389Z,15.30
2018-03-27T19:23:42.438Z,15.67
2018-03-27T19:26:09.999Z,19.43
2018-03-27T19:28:37.044Z,17.40
2018-03-27T19:31:04.913Z,17.00
2018-03-27T19:33:31.964Z,16.00
2018-03-27T19:36:00.292Z,16.23
2018-03-27T19:38:27.286Z,16.50
2018-03-27T19:40:54.345Z,15.77
2018-03-27T19:43:21.410Z,16.00
2018-03-27T19:45:48.437Z,19.10
2018-03-27T19:48:15.483Z,18.57
2018-03-27T19:50:42.426Z,17.60
2018-03-27T19:53:09.684Z,17.87
2018-03-27T19:55:36.728Z,17.67
2018-03-27T19:58:03.881Z,20.33
2018-03-27T20:00:31.543Z,19.57
2018-03-27T20:02:58.595Z,21.57
2018-03-27T20:05:25.638Z,21.60
2018-03-27T20:07:52.789Z,23.53
2018-03-27T20:10:19.839Z,21.50
2018-03-27T20:12:47.911Z,20.10
2018-03-27T20:15:15.536Z,27.20
2018-03-27T20:17:42.519Z,30.10
2018-03-27T20:20:09.574Z,23.50
2018-03-27T20:22:36.725Z,27.07
2018-03-27T20:25:03.769Z,21.87
2018-03-27T20:27:30.919Z,21.63
2018-03-27T20:29:58.689Z,20.83
2018-03-27T20:32:25.732Z,20.57
2018-03-27T20:34:53.600Z,19.83
2018-03-27T20:37:21.876Z,20.50
2018-03-27T20:39:48.931Z,20.57
2018-03-27T20:42:16.389Z,20.63
2018-03-27T20:44:43.432Z,20.17
2018-03-27T20:47:10.470Z,21.00
2018-03-27T20:49:39.205Z,19.00
2018-03-27T20:52:06.200Z,19.60
2018-03-27T20:54:33.251Z,18.67
2018-03-27T20:57:00.812Z,18.93
2018-03-27T20:59:27.796Z,18.47
2018-03-27T21:01:54.802Z,19.37
2018-03-27T21:04:21.850Z,20.37
2018-03-27T21:06:48.903Z,21.77
2018-03-27T21:09:15.947Z,20.57
2018-03-27T21:11:42.995Z,19.67
2018-03-27T21:14:10.050Z,19.53
2018-03-27T21:16:38.218Z,19.43
2018-03-27T21:19:05.273Z,19.40
2018-03-27T21:21:32.315Z,20.27
2018-03-27T21:23:59.364Z,19.43
2018-03-27T21:26:26.418Z,21.47
2018-03-27T21:28:53.569Z,20.33
2018-03-27T21:31:20.614Z,18.97
2018-03-27T21:33:47.660Z,20.27
2018-03-27T21:36:15.529Z,20.03
2018-03-27T21:38:43.745Z,20.37
2018-03-27T21:41:10.755Z,20.53
2018-03-27T21:43:37.800Z,19.87
2018-03-27T21:46:04.855Z,21.00
2018-03-27T21:48:31.902Z,20.00
2018-03-27T21:50:58.946Z,20.47
2018-03-27T21:53:26.001Z,23.03
2018-03-27T21:55:53.043Z,24.07
2018-03-27T21:58:20.134Z,23.10
2018-03-27T22:00:47.038Z,22.37
2018-03-27T22:03:14.087Z,23.30
2018-03-27T22:05:41.388Z,22.67
2018-03-27T22:08:08.388Z,22.97
2018-03-27T22:10:35.286Z,23.33
2018-03-27T22:13:02.997Z,22.23
2018-03-27T22:15:31.224Z,23.10
2018-03-27T22:17:58.221Z,22.93
2018-03-27T22:20:25.275Z,22.87
2018-03-27T22:22:52.321Z,22.93
2018-03-27T22:25:19.366Z,22.60
2018-03-27T22:27:46.823Z,22.40
2018-03-27T22:30:13.878Z,23.10
2018-03-27T22:32:40.920Z,21.97
2018-03-27T22:35:08.687Z,22.93
2018-03-27T22:37:36.963Z,20.67
2018-03-27T22:40:03.910Z,23.17
2018-03-27T22:42:30.958Z,21.80
2018-03-27T22:44:58.012Z,21.43
2018-03-27T22:47:25.567Z,21.00
2018-03-27T22:49:52.622Z,21.27
2018-03-27T22:52:19.663Z,21.43
2018-03-27T22:54:46.651Z,19.73
2018-03-27T22:57:13.659Z,20.63
2018-03-27T22:59:40.709Z,20.93
2018-03-27T23:02:07.761Z,20.57
2018-03-27T23:04:34.804Z,20.43
2018-03-27T23:07:01.852Z,20.13
2018-03-27T23:09:28.799Z,20.57
2018-03-27T23:11:56.770Z,21.13
2018-03-27T23:14:24.436Z,20.97
2018-03-27T23:16:51.686Z,21.30
2018-03-27T23:19:19.355Z,21.20
2018-03-27T23:21:46.707Z,19.60
2018-03-27T23:24:13.753Z,20.03
2018-03-27T23:26:40.806Z,19.17
2018-03-27T23:29:07.849Z,19.73
2018-03-27T23:31:34.897Z,19.63
2018-03-27T23:34:01.951Z,19.83
2018-03-27T23:36:28.995Z,20.20
2018-03-27T23:38:56.047Z,19.47
2018-03-27T23:41:23.106Z,19.97
2018-03-27T23:43:50.147Z,20.13
2018-03-27T23:46:17.192Z,19.83
2018-03-27T23:48:44.139Z,19.93
2018-03-27T23:51:12.418Z,20.57
2018-03-27T23:53:39.468Z,19.30
2018-03-27T23:56:06.509Z,18.87
2018-03-27T23:58:33.772Z,19.23
